Hanna, Indiana
Current Conditions -  °F | °C
As of 3:15 PM on Friday 24 Oct 2014 (Local Time) from KOXI Reporting Station
Clear Clear  
Wind Chill: 66°   Ceiling: Unl
Heat Index: 66°   Visibility: 10mi
Dew Point: 48°   Wind: 10mph
Humidity: 51%   Direction: 250°WSW
Pressure: 29.98"   Gusts: NA
Location:  41.41°N, 86.78°W
Report Text: KOXI 242015Z AUTO 25009KT 10SM CLR 19/09 A2998 RMK AO1 T01910088
Loading
Personal Weather Stations






























Interactive Weather Map
Tropical Storm Tracking
New forecast layout! Learn more

10-Day Weather Forecast

Advertisements
Track Severe Weather on mobile